Aviation Digital Data Service (ADDS)

Output produced by METARs form (1631 UTC 23 September 2020)
found at http://aviationweather.gov/metar/data/
 
KMSY 231123Z 2312/2418 11009KT P6SM SCT060 
     FM231400 12010KT P6SM VCSH BKN020 
     FM232200 14011KT P6SM VCTS BKN015CB 
     FM240200 15009KT P6SM VCSH BKN015 
     FM240700 17010KT P6SM BKN015